createdAt,value
2023-02-16T00:00:28.474Z,-0.10
2023-02-16T00:01:28.471Z,-0.10
2023-02-16T00:02:28.492Z,-0.08
2023-02-16T00:03:28.691Z,-0.15
2023-02-16T00:04:28.419Z,-0.21
2023-02-16T00:05:28.412Z,-0.23
2023-02-16T00:06:28.390Z,-0.21
2023-02-16T00:07:28.389Z,-0.23
2023-02-16T00:08:28.388Z,-0.23
2023-02-16T00:09:28.354Z,-0.15
2023-02-16T00:10:28.345Z,-0.15
2023-02-16T00:11:28.330Z,-0.20
2023-02-16T00:12:28.322Z,-0.23
2023-02-16T00:13:28.316Z,-0.26
2023-02-16T00:14:28.298Z,-0.29
2023-02-16T00:15:28.276Z,-0.25
2023-02-16T00:16:28.270Z,-0.26
2023-02-16T00:17:28.251Z,-0.28
2023-02-16T00:18:28.237Z,-0.23
2023-02-16T00:19:28.253Z,-0.25
2023-02-16T00:20:28.224Z,-0.26
2023-02-16T00:21:28.203Z,-0.28
2023-02-16T00:22:28.197Z,-0.31
2023-02-16T00:23:28.186Z,-0.36
2023-02-16T00:24:28.175Z,-0.36
2023-02-16T00:25:28.146Z,-0.43
2023-02-16T00:26:28.178Z,-0.41
2023-02-16T00:27:28.118Z,-0.34
2023-02-16T00:28:28.120Z,-0.31
2023-02-16T00:29:28.092Z,-0.26
2023-02-16T00:30:28.128Z,-0.25
2023-02-16T00:31:28.198Z,-0.29
2023-02-16T00:32:28.136Z,-0.34
2023-02-16T00:33:28.043Z,-0.38
2023-02-16T00:34:28.056Z,-0.34
2023-02-16T00:35:28.048Z,-0.35
2023-02-16T00:36:28.007Z,-0.38
2023-02-16T00:37:28.000Z,-0.41
2023-02-16T00:38:27.989Z,-0.44
2023-02-16T00:39:27.990Z,-0.44
2023-02-16T00:40:27.955Z,-0.47
2023-02-16T00:41:27.942Z,-0.41
2023-02-16T00:42:27.937Z,-0.36
2023-02-16T00:43:27.924Z,-0.36
2023-02-16T00:44:27.914Z,-0.39
2023-02-16T00:45:27.897Z,-0.36
2023-02-16T00:46:27.949Z,-0.36
2023-02-16T00:47:27.871Z,-0.52
2023-02-16T00:48:27.868Z,-0.47
2023-02-16T00:49:27.850Z,-0.50
2023-02-16T00:50:27.842Z,-0.47
2023-02-16T00:51:28.306Z,-0.46
2023-02-16T00:52:27.799Z,-0.43
2023-02-16T00:53:27.797Z,-0.38
2023-02-16T00:54:28.950Z,-0.43
2023-02-16T00:55:27.770Z,-0.43
2023-02-16T00:56:27.750Z,-0.41
2023-02-16T00:57:27.743Z,-0.36
2023-02-16T00:58:27.724Z,-0.35
2023-02-16T00:59:27.717Z,-0.34
2023-02-16T01:00:27.701Z,-0.31
2023-02-16T01:01:27.751Z,-0.29
2023-02-16T01:02:27.677Z,-0.31
2023-02-16T01:03:27.686Z,-0.35
2023-02-16T01:04:27.712Z,-0.31
2023-02-16T01:05:27.634Z,-0.31
2023-02-16T01:06:27.623Z,-0.35
2023-02-16T01:07:27.632Z,-0.32
2023-02-16T01:08:27.595Z,-0.31
2023-02-16T01:09:27.583Z,-0.35
2023-02-16T01:10:27.582Z,-0.36
2023-02-16T01:11:27.624Z,-0.35
2023-02-16T01:12:27.551Z,-0.46
2023-02-16T01:13:27.528Z,-0.59
2023-02-16T01:14:27.522Z,-0.64
2023-02-16T01:15:27.557Z,-0.65
2023-02-16T01:16:27.498Z,-0.72
2023-02-16T01:17:27.476Z,-0.72
2023-02-16T01:18:27.462Z,-0.68
2023-02-16T01:19:27.447Z,-0.65
2023-02-16T01:20:27.444Z,-0.71
2023-02-16T01:21:27.439Z,-0.74
2023-02-16T01:22:27.413Z,-0.64
2023-02-16T01:23:27.428Z,-0.59
2023-02-16T01:24:27.400Z,-0.52
2023-02-16T01:25:27.386Z,-0.56
2023-02-16T01:26:27.355Z,-0.59
2023-02-16T01:27:27.349Z,-0.62
2023-02-16T01:28:27.339Z,-0.65
2023-02-16T01:29:27.318Z,-0.67
2023-02-16T01:30:27.438Z,-0.67
2023-02-16T01:31:27.438Z,-0.67
2023-02-16T01:32:27.358Z,-0.68
2023-02-16T01:33:27.272Z,-0.71
2023-02-16T01:34:27.251Z,-0.77
2023-02-16T01:35:27.252Z,-0.70
2023-02-16T01:36:27.241Z,-0.72
2023-02-16T01:37:27.222Z,-0.70
2023-02-16T01:38:27.213Z,-0.61
2023-02-16T01:39:27.221Z,-0.59
2023-02-16T01:40:27.182Z,-0.59
2023-02-16T01:41:27.168Z,-0.61
2023-02-16T01:42:27.147Z,-0.65
2023-02-16T01:43:27.135Z,-0.71
2023-02-16T01:44:27.127Z,-0.70
2023-02-16T01:45:27.111Z,-0.71
2023-02-16T01:46:27.137Z,-0.65
2023-02-16T01:47:27.091Z,-0.57
2023-02-16T01:48:27.079Z,-0.61
2023-02-16T01:49:27.065Z,-0.59
2023-02-16T01:50:27.059Z,-0.56
2023-02-16T01:51:27.035Z,-0.61
2023-02-16T01:52:27.022Z,-0.65
2023-02-16T01:53:27.019Z,-0.67
2023-02-16T01:54:27.002Z,-0.64
2023-02-16T01:55:27.101Z,-0.62
2023-02-16T01:56:26.975Z,-0.52
2023-02-16T01:57:26.961Z,-0.64
2023-02-16T01:58:26.942Z,-0.68
2023-02-16T01:59:26.936Z,-0.67
2023-02-16T02:00:26.925Z,-0.65
2023-02-16T02:01:27.016Z,-0.62
2023-02-16T02:02:26.946Z,-0.64
2023-02-16T02:03:26.884Z,-0.56
2023-02-16T02:04:26.868Z,-0.61
2023-02-16T02:05:26.861Z,-0.61
2023-02-16T02:06:26.847Z,-0.62
2023-02-16T02:07:26.836Z,-0.61
2023-02-16T02:08:26.824Z,-0.59
2023-02-16T02:09:26.816Z,-0.62
2023-02-16T02:10:26.795Z,-0.57
2023-02-16T02:11:26.804Z,-0.54
2023-02-16T02:12:26.760Z,-0.54
2023-02-16T02:13:26.768Z,-0.53
2023-02-16T02:14:26.750Z,-0.57
2023-02-16T02:15:26.730Z,-0.68
2023-02-16T02:16:26.750Z,-0.71
2023-02-16T02:17:26.707Z,-0.70
2023-02-16T02:18:26.686Z,-0.64
2023-02-16T02:19:26.678Z,-0.68
2023-02-16T02:20:26.660Z,-0.83
2023-02-16T02:21:26.653Z,-0.80
2023-02-16T02:22:26.641Z,-0.86
2023-02-16T02:23:26.628Z,-0.93
2023-02-16T02:24:26.613Z,-0.91
2023-02-16T02:25:26.600Z,-0.86
2023-02-16T02:26:26.585Z,-0.89
2023-02-16T02:27:26.609Z,-0.91
2023-02-16T02:28:26.562Z,-0.96
2023-02-16T02:29:26.548Z,-0.96
2023-02-16T02:30:26.606Z,-0.99
2023-02-16T02:31:26.673Z,-1.07
2023-02-16T02:32:26.499Z,-1.04
2023-02-16T02:33:26.485Z,-0.99
2023-02-16T02:34:26.492Z,-0.97
2023-02-16T02:35:26.464Z,-1.01
2023-02-16T02:36:26.455Z,-0.96
2023-02-16T02:37:26.436Z,-1.02
2023-02-16T02:38:26.429Z,-1.02
2023-02-16T02:39:26.407Z,-0.97
2023-02-16T02:40:26.396Z,-0.89
2023-02-16T02:41:26.383Z,-0.89
2023-02-16T02:42:26.392Z,-0.82
2023-02-16T02:43:26.436Z,-0.83
2023-02-16T02:44:26.348Z,-0.78
2023-02-16T02:45:26.332Z,-0.82
2023-02-16T02:46:26.488Z,-0.77
2023-02-16T02:47:26.312Z,-0.75
2023-02-16T02:48:26.293Z,-0.74
2023-02-16T02:49:26.288Z,-0.80
2023-02-16T02:50:26.276Z,-0.91
2023-02-16T02:51:26.254Z,-0.94
2023-02-16T02:52:26.241Z,-0.99
2023-02-16T02:53:26.236Z,-1.05
2023-02-16T02:54:26.229Z,-1.12
2023-02-16T02:55:26.214Z,-1.14
2023-02-16T02:56:26.200Z,-1.17
2023-02-16T02:57:26.183Z,-1.15
2023-02-16T02:58:26.162Z,-1.12
2023-02-16T02:59:26.187Z,-1.07
2023-02-16T03:00:26.152Z,-1.12
2023-02-16T03:01:26.257Z,-1.20
2023-02-16T03:02:26.122Z,-1.17
2023-02-16T03:03:26.097Z,-1.14
2023-02-16T03:04:26.101Z,-1.09
2023-02-16T03:05:26.088Z,-1.09
2023-02-16T03:06:26.074Z,-1.04
2023-02-16T03:07:26.049Z,-1.02
2023-02-16T03:08:26.042Z,-1.01
2023-02-16T03:09:26.024Z,-0.97
2023-02-16T03:10:26.013Z,-1.07
2023-02-16T03:11:25.999Z,-1.08
2023-02-16T03:12:25.995Z,-1.05
2023-02-16T03:13:25.970Z,-1.02
2023-02-16T03:14:25.959Z,-1.02
2023-02-16T03:15:26.036Z,-1.05
2023-02-16T03:16:25.995Z,-1.04
2023-02-16T03:17:25.926Z,-1.02
2023-02-16T03:18:25.916Z,-1.04
2023-02-16T03:19:25.903Z,-0.99
2023-02-16T03:20:25.887Z,-0.94
2023-02-16T03:21:25.866Z,-0.86
2023-02-16T03:22:25.859Z,-0.91
2023-02-16T03:23:25.837Z,-0.86
2023-02-16T03:24:25.836Z,-0.85
2023-02-16T03:25:25.811Z,-0.86
2023-02-16T03:26:25.817Z,-0.85
2023-02-16T03:27:25.793Z,-0.89
2023-02-16T03:28:25.774Z,-0.93
2023-02-16T03:29:25.757Z,-0.91
2023-02-16T03:30:25.874Z,-1.02
2023-02-16T03:31:25.881Z,-0.91
2023-02-16T03:32:25.723Z,-0.93
2023-02-16T03:33:25.703Z,-0.94
2023-02-16T03:34:25.706Z,-0.96
2023-02-16T03:35:25.696Z,-0.99
2023-02-16T03:36:25.677Z,-0.94
2023-02-16T03:37:25.662Z,-0.97
2023-02-16T03:38:25.648Z,-0.96
2023-02-16T03:39:25.635Z,-0.94
2023-02-16T03:40:25.626Z,-0.99
2023-02-16T03:41:25.613Z,-1.02
2023-02-16T03:42:25.621Z,-1.01
2023-02-16T03:43:25.585Z,-1.01
2023-02-16T03:44:25.574Z,-1.02
2023-02-16T03:45:25.564Z,-1.12
2023-02-16T03:46:25.549Z,-1.17
2023-02-16T03:47:25.562Z,-1.22
2023-02-16T03:48:26.371Z,-1.25
2023-02-16T03:49:25.516Z,-1.32
2023-02-16T03:50:25.494Z,-1.32
2023-02-16T03:51:25.482Z,-1.30
2023-02-16T03:52:25.465Z,-1.27
2023-02-16T03:53:25.459Z,-1.30
2023-02-16T03:54:25.440Z,-1.32
2023-02-16T03:55:25.432Z,-1.35
2023-02-16T03:56:25.421Z,-1.35
2023-02-16T03:57:25.408Z,-1.33
2023-02-16T03:58:25.388Z,-1.40
2023-02-16T03:59:25.385Z,-1.41
2023-02-16T04:00:25.362Z,-1.41
2023-02-16T04:01:25.357Z,-1.47
2023-02-16T04:02:25.460Z,-1.51
2023-02-16T04:03:25.363Z,-1.56
2023-02-16T04:04:25.373Z,-1.54
2023-02-16T04:05:25.310Z,-1.50
2023-02-16T04:06:25.291Z,-1.50
2023-02-16T04:07:25.274Z,-1.43
2023-02-16T04:08:25.272Z,-1.33
2023-02-16T04:09:25.251Z,-1.29
2023-02-16T04:10:25.244Z,-1.27
2023-02-16T04:11:25.235Z,-1.30
2023-02-16T04:12:25.224Z,-1.33
2023-02-16T04:13:25.206Z,-1.32
2023-02-16T04:14:25.192Z,-1.38
2023-02-16T04:15:25.179Z,-1.37
2023-02-16T04:16:25.245Z,-1.41
2023-02-16T04:17:25.154Z,-1.46
2023-02-16T04:18:25.143Z,-1.51
2023-02-16T04:19:25.151Z,-1.44
2023-02-16T04:20:25.114Z,-1.46
2023-02-16T04:21:25.096Z,-1.47
2023-02-16T04:22:25.097Z,-1.48
2023-02-16T04:23:25.070Z,-1.43
2023-02-16T04:24:25.062Z,-1.44
2023-02-16T04:25:25.087Z,-1.40
2023-02-16T04:26:25.037Z,-1.46
2023-02-16T04:27:25.035Z,-1.48
2023-02-16T04:28:25.013Z,-1.47
2023-02-16T04:29:25.009Z,-1.46
2023-02-16T04:30:25.058Z,-1.48
2023-02-16T04:31:25.124Z,-1.44
2023-02-16T04:32:24.949Z,-1.43
2023-02-16T04:33:25.025Z,-1.41
2023-02-16T04:34:24.928Z,-1.37
2023-02-16T04:35:24.940Z,-1.32
2023-02-16T04:36:24.908Z,-1.30
2023-02-16T04:37:24.895Z,-1.33
2023-02-16T04:38:24.891Z,-1.35
2023-02-16T04:39:24.869Z,-1.32
2023-02-16T04:40:24.864Z,-1.35
2023-02-16T04:41:24.846Z,-1.32
2023-02-16T04:42:24.820Z,-1.32
2023-02-16T04:43:24.813Z,-1.35
2023-02-16T04:44:24.802Z,-1.35
2023-02-16T04:45:24.782Z,-1.32
2023-02-16T04:46:24.847Z,-1.37
2023-02-16T04:47:24.766Z,-1.35
2023-02-16T04:48:24.752Z,-1.35
2023-02-16T04:49:24.747Z,-1.30
2023-02-16T04:50:24.734Z,-1.32
2023-02-16T04:51:24.750Z,-1.30
2023-02-16T04:52:24.698Z,-1.35
2023-02-16T04:53:24.685Z,-1.30
2023-02-16T04:54:24.676Z,-1.29
2023-02-16T04:55:24.653Z,-1.26
2023-02-16T04:56:24.639Z,-1.25
2023-02-16T04:57:24.643Z,-1.23
2023-02-16T04:58:24.616Z,-1.27
2023-02-16T04:59:24.606Z,-1.20
2023-02-16T05:00:24.606Z,-1.15
2023-02-16T05:01:24.725Z,-1.17
2023-02-16T05:02:24.580Z,-1.19
2023-02-16T05:03:24.561Z,-1.22
2023-02-16T05:04:24.636Z,-1.25
2023-02-16T05:05:24.531Z,-1.30
2023-02-16T05:06:24.532Z,-1.30
2023-02-16T05:07:24.534Z,-1.29
2023-02-16T05:08:24.497Z,-1.29
2023-02-16T05:09:24.472Z,-1.33
2023-02-16T05:10:24.460Z,-1.32
2023-02-16T05:11:24.448Z,-1.32
2023-02-16T05:12:24.449Z,-1.27
2023-02-16T05:13:24.430Z,-1.27
2023-02-16T05:14:24.436Z,-1.29
2023-02-16T05:15:24.401Z,-1.29
2023-02-16T05:16:24.413Z,-1.29
2023-02-16T05:17:24.373Z,-1.33
2023-02-16T05:18:24.367Z,-1.43
2023-02-16T05:19:24.353Z,-1.40
2023-02-16T05:20:24.342Z,-1.47
2023-02-16T05:21:24.326Z,-1.50
2023-02-16T05:22:24.328Z,-1.47
2023-02-16T05:23:24.336Z,-1.43
2023-02-16T05:24:24.282Z,-1.41
2023-02-16T05:25:24.294Z,-1.43
2023-02-16T05:26:24.269Z,-1.51
2023-02-16T05:27:24.244Z,-1.51
2023-02-16T05:28:24.333Z,-1.48
2023-02-16T05:29:24.229Z,-1.51
2023-02-16T05:30:24.309Z,-1.47
2023-02-16T05:31:24.355Z,-1.48
2023-02-16T05:32:24.326Z,-1.53
2023-02-16T05:33:24.174Z,-1.44
2023-02-16T05:34:24.234Z,-1.54
2023-02-16T05:35:24.158Z,-1.64
2023-02-16T05:36:24.136Z,-1.76
2023-02-16T05:37:24.135Z,-1.83
2023-02-16T05:38:24.118Z,-1.87
2023-02-16T05:39:24.113Z,-1.86
2023-02-16T05:40:24.092Z,-1.89
2023-02-16T05:41:24.106Z,-1.92
2023-02-16T05:42:24.071Z,-1.92
2023-02-16T05:43:24.043Z,-2.00
2023-02-16T05:44:24.037Z,-2.01
2023-02-16T05:45:24.025Z,-1.92
2023-02-16T05:46:24.109Z,-2.00
2023-02-16T05:47:23.994Z,-2.01
2023-02-16T05:48:23.994Z,-1.97
2023-02-16T05:49:24.158Z,-2.02
2023-02-16T05:50:23.962Z,-2.04
2023-02-16T05:51:23.941Z,-2.07
2023-02-16T05:52:23.935Z,-2.04
2023-02-16T05:53:23.923Z,-2.05
2023-02-16T05:54:23.912Z,-2.07
2023-02-16T05:55:23.925Z,-1.98
2023-02-16T05:56:23.886Z,-2.00
2023-02-16T05:57:23.866Z,-1.92
2023-02-16T05:58:23.867Z,-1.84
2023-02-16T05:59:24.032Z,-1.84
2023-02-16T06:00:23.850Z,-1.86
2023-02-16T06:01:23.818Z,-1.84
2023-02-16T06:02:23.871Z,-1.90
2023-02-16T06:03:23.789Z,-1.94
2023-02-16T06:04:23.796Z,-1.84
2023-02-16T06:05:23.764Z,-1.84
2023-02-16T06:06:23.760Z,-1.83
2023-02-16T06:07:23.748Z,-1.82
2023-02-16T06:08:23.727Z,-1.80
2023-02-16T06:09:23.746Z,-1.71
2023-02-16T06:10:23.700Z,-1.72
2023-02-16T06:11:23.724Z,-1.74
2023-02-16T06:12:23.686Z,-1.77
2023-02-16T06:13:23.671Z,-1.82
2023-02-16T06:14:23.658Z,-1.79
2023-02-16T06:15:23.656Z,-1.79
2023-02-16T06:16:23.728Z,-1.84
2023-02-16T06:17:23.635Z,-1.90
2023-02-16T06:18:23.608Z,-2.00
2023-02-16T06:19:23.596Z,-2.00
2023-02-16T06:20:23.573Z,-2.04
2023-02-16T06:21:23.566Z,-2.01
2023-02-16T06:22:23.558Z,-2.02
2023-02-16T06:23:23.536Z,-1.97
2023-02-16T06:24:23.530Z,-1.94
2023-02-16T06:25:23.519Z,-1.95
2023-02-16T06:26:23.499Z,-1.98
2023-02-16T06:27:23.515Z,-2.00
2023-02-16T06:28:23.481Z,-2.00
2023-02-16T06:29:23.469Z,-2.02
2023-02-16T06:30:23.556Z,-2.04
2023-02-16T06:31:23.558Z,-2.05
2023-02-16T06:32:23.609Z,-2.07
2023-02-16T06:33:23.427Z,-2.05
2023-02-16T06:34:23.397Z,-2.01
2023-02-16T06:35:23.389Z,-2.00
2023-02-16T06:36:23.373Z,-1.95
2023-02-16T06:37:23.369Z,-1.89
2023-02-16T06:38:23.341Z,-1.87
2023-02-16T06:39:23.329Z,-1.84
2023-02-16T06:40:23.315Z,-1.86
2023-02-16T06:41:23.302Z,-1.80
2023-02-16T06:42:23.312Z,-1.80
2023-02-16T06:43:23.309Z,-1.82
2023-02-16T06:44:23.262Z,-1.90
2023-02-16T06:45:23.266Z,-1.98
2023-02-16T06:46:23.399Z,-1.97
2023-02-16T06:47:23.233Z,-1.92
2023-02-16T06:48:23.215Z,-1.87
2023-02-16T06:49:24.886Z,-1.94
2023-02-16T06:50:23.197Z,-1.95
2023-02-16T06:51:23.203Z,-1.98
2023-02-16T06:52:23.167Z,-1.98
2023-02-16T06:53:23.155Z,-2.05
2023-02-16T06:54:23.149Z,-2.08
2023-02-16T06:55:23.129Z,-2.05
2023-02-16T06:56:23.106Z,-1.97
2023-02-16T06:57:23.105Z,-1.94
2023-02-16T06:58:23.091Z,-1.84
2023-02-16T06:59:23.104Z,-1.82
2023-02-16T07:00:23.259Z,-1.82
2023-02-16T07:01:23.531Z,-1.83
2023-02-16T07:02:23.035Z,-1.79
2023-02-16T07:03:23.049Z,-1.80
2023-02-16T07:04:23.012Z,-1.77
2023-02-16T07:05:22.997Z,-1.80
2023-02-16T07:06:22.981Z,-1.89
2023-02-16T07:07:22.963Z,-1.94
2023-02-16T07:08:22.952Z,-1.97
2023-02-16T07:09:22.938Z,-1.95
2023-02-16T07:10:22.934Z,-1.84
2023-02-16T07:11:22.945Z,-1.86
2023-02-16T07:12:22.904Z,-1.83
2023-02-16T07:13:22.932Z,-1.82
2023-02-16T07:14:22.878Z,-1.82
2023-02-16T07:15:22.896Z,-1.82
2023-02-16T07:16:22.906Z,-1.84
2023-02-16T07:17:22.849Z,-1.80
2023-02-16T07:18:22.818Z,-1.84
2023-02-16T07:19:22.813Z,-1.82
2023-02-16T07:20:22.803Z,-1.83
2023-02-16T07:21:22.785Z,-1.79
2023-02-16T07:22:22.780Z,-1.74
2023-02-16T07:23:22.763Z,-1.74
2023-02-16T07:24:22.749Z,-1.80
2023-02-16T07:25:22.728Z,-1.82
2023-02-16T07:26:22.719Z,-1.79
2023-02-16T07:27:22.711Z,-1.74
2023-02-16T07:28:22.704Z,-1.74
2023-02-16T07:29:22.679Z,-1.66
2023-02-16T07:30:22.730Z,-1.58
2023-02-16T07:31:22.818Z,-1.62
2023-02-16T07:32:22.675Z,-1.61
2023-02-16T07:33:22.629Z,-1.61
2023-02-16T07:34:22.619Z,-1.64
2023-02-16T07:35:22.614Z,-1.64
2023-02-16T07:36:22.598Z,-1.61
2023-02-16T07:37:22.586Z,-1.41
2023-02-16T07:38:22.567Z,-1.07
2023-02-16T07:39:22.560Z,-0.71
2023-02-16T07:40:22.534Z,-0.64
2023-02-16T07:41:22.531Z,-0.49
2023-02-16T07:42:22.524Z,0.05
2023-02-16T07:43:22.502Z,0.95
2023-02-16T07:44:22.487Z,1.41
2023-02-16T07:45:22.487Z,1.45
2023-02-16T07:46:22.462Z,1.84
2023-02-16T07:47:22.470Z,2.67
2023-02-16T07:48:22.439Z,3.48
2023-02-16T07:49:22.421Z,4.20
2023-02-16T07:50:22.402Z,4.41
2023-02-16T07:51:22.395Z,4.90
2023-02-16T07:52:22.374Z,5.33
2023-02-16T07:53:22.369Z,5.07
2023-02-16T07:54:22.357Z,4.42
2023-02-16T07:55:22.347Z,3.95
2023-02-16T07:56:22.330Z,3.81
2023-02-16T07:57:22.306Z,3.74
2023-02-16T07:58:22.316Z,3.70
2023-02-16T07:59:22.287Z,3.44
2023-02-16T08:00:22.286Z,2.85
2023-02-16T08:01:22.265Z,2.49
2023-02-16T08:02:22.419Z,2.25
2023-02-16T08:03:22.402Z,2.15
2023-02-16T08:04:22.218Z,2.13
2023-02-16T08:05:22.218Z,2.56
2023-02-16T08:06:22.193Z,3.32
2023-02-16T08:07:22.192Z,4.12
2023-02-16T08:08:22.175Z,4.37
2023-02-16T08:09:22.158Z,4.38
2023-02-16T08:10:22.146Z,4.20
2023-02-16T08:11:22.138Z,3.91
2023-02-16T08:12:22.132Z,3.88
2023-02-16T08:13:22.122Z,3.99
2023-02-16T08:14:22.091Z,4.32
2023-02-16T08:15:22.083Z,4.48
2023-02-16T08:16:22.112Z,4.68
2023-02-16T08:17:22.052Z,5.00
2023-02-16T08:18:22.040Z,5.33
2023-02-16T08:19:22.071Z,5.66
2023-02-16T08:20:25.857Z,6.12
2023-02-16T08:21:23.047Z,6.60
2023-02-16T08:22:21.999Z,6.81
2023-02-16T08:23:21.987Z,6.78
2023-02-16T08:24:21.980Z,6.70
2023-02-16T08:25:21.955Z,6.63
2023-02-16T08:26:21.960Z,6.41
2023-02-16T08:27:21.940Z,6.26
2023-02-16T08:28:21.922Z,6.57
2023-02-16T08:29:21.910Z,6.72
2023-02-16T08:30:21.936Z,6.52
2023-02-16T08:31:22.001Z,6.48
2023-02-16T08:32:21.915Z,6.54
2023-02-16T08:33:21.852Z,6.30
2023-02-16T08:34:21.837Z,5.99
2023-02-16T08:35:21.854Z,5.89
2023-02-16T08:36:21.815Z,6.01
2023-02-16T08:37:21.810Z,6.46
2023-02-16T08:38:21.805Z,7.18
2023-02-16T08:39:21.793Z,7.83
2023-02-16T08:40:21.770Z,8.37
2023-02-16T08:41:21.769Z,8.94
2023-02-16T08:42:21.757Z,9.73
2023-02-16T08:43:21.734Z,10.40
2023-02-16T08:44:21.760Z,10.41
2023-02-16T08:45:21.705Z,10.19
2023-02-16T08:46:21.846Z,10.15
2023-02-16T08:47:21.678Z,10.23
2023-02-16T08:48:21.664Z,10.64
2023-02-16T08:49:21.647Z,11.07
2023-02-16T08:50:21.652Z,11.22
2023-02-16T08:51:21.696Z,11.18
2023-02-16T08:52:21.613Z,10.96
2023-02-16T08:53:21.597Z,11.30
2023-02-16T08:54:21.613Z,11.65
2023-02-16T08:55:21.564Z,11.81
2023-02-16T08:56:21.564Z,11.86
2023-02-16T08:57:21.544Z,11.97
2023-02-16T08:58:21.535Z,12.04
2023-02-16T08:59:21.533Z,12.12
2023-02-16T09:00:21.497Z,12.13
2023-02-16T09:01:21.548Z,12.10
2023-02-16T09:02:21.514Z,11.87
2023-02-16T09:03:21.467Z,11.30
2023-02-16T09:04:21.457Z,10.64
2023-02-16T09:05:21.438Z,10.19
2023-02-16T09:06:21.458Z,10.02
2023-02-16T09:07:21.436Z,10.26
2023-02-16T09:08:21.400Z,10.46
2023-02-16T09:09:21.387Z,10.46
2023-02-16T09:10:21.448Z,10.63
2023-02-16T09:11:21.371Z,10.63
2023-02-16T09:12:21.350Z,10.51
2023-02-16T09:13:21.339Z,10.49
2023-02-16T09:14:21.327Z,10.59
2023-02-16T09:15:21.304Z,10.60
2023-02-16T09:16:21.440Z,10.87
2023-02-16T09:17:21.300Z,11.19
2023-02-16T09:18:21.279Z,11.35
2023-02-16T09:19:21.280Z,11.36
2023-02-16T09:20:21.286Z,11.26
2023-02-16T09:21:21.275Z,11.32
2023-02-16T09:22:21.218Z,11.54
2023-02-16T09:23:21.262Z,11.80
2023-02-16T09:24:21.200Z,11.97
2023-02-16T09:25:21.191Z,12.12
2023-02-16T09:26:21.181Z,12.29
2023-02-16T09:27:21.159Z,12.39
2023-02-16T09:28:21.152Z,12.39
2023-02-16T09:29:21.153Z,11.40
2023-02-16T09:30:21.222Z,10.96
2023-02-16T09:31:21.212Z,10.63
2023-02-16T09:32:21.086Z,10.56
2023-02-16T09:33:21.150Z,10.38
2023-02-16T09:34:21.080Z,10.09
2023-02-16T09:35:21.056Z,10.07
2023-02-16T09:36:21.045Z,10.25
2023-02-16T09:37:21.026Z,10.59
2023-02-16T09:38:21.020Z,10.64
2023-02-16T09:39:21.027Z,10.53
2023-02-16T09:40:21.113Z,10.57
2023-02-16T09:41:20.980Z,10.20
2023-02-16T09:42:20.986Z,9.91
2023-02-16T09:43:21.058Z,9.44
2023-02-16T09:44:20.945Z,9.04
2023-02-16T09:45:20.917Z,8.78
2023-02-16T09:46:22.569Z,8.61
2023-02-16T09:47:20.903Z,8.51
2023-02-16T09:48:20.937Z,8.52
2023-02-16T09:49:20.867Z,8.55
2023-02-16T09:50:38.281Z,8.60
2023-02-16T09:51:29.381Z,8.64
2023-02-16T09:52:21.865Z,8.89
2023-02-16T09:53:20.820Z,9.64
2023-02-16T09:54:20.803Z,10.28
2023-02-16T09:55:20.893Z,10.53
2023-02-16T09:56:20.793Z,10.22
2023-02-16T09:57:20.775Z,9.89
2023-02-16T09:58:20.751Z,9.74
2023-02-16T09:59:20.746Z,9.54
2023-02-16T10:00:20.733Z,9.39
2023-02-16T10:01:20.794Z,9.36
2023-02-16T10:02:20.768Z,9.19
2023-02-16T10:03:20.786Z,9.13
2023-02-16T10:04:20.682Z,9.02
2023-02-16T10:05:20.674Z,9.02
2023-02-16T10:06:20.655Z,9.10
2023-02-16T10:07:20.660Z,9.34
2023-02-16T10:08:20.626Z,9.73
2023-02-16T10:09:20.621Z,10.28
2023-02-16T10:10:20.611Z,10.64
2023-02-16T10:11:20.608Z,11.12
2023-02-16T10:12:20.584Z,11.35
2023-02-16T10:13:20.568Z,11.41
2023-02-16T10:14:20.556Z,11.33
2023-02-16T10:15:20.557Z,11.29
2023-02-16T10:16:20.533Z,11.23
2023-02-16T10:17:20.533Z,11.11
2023-02-16T10:18:20.514Z,10.93
2023-02-16T10:19:20.492Z,10.81
2023-02-16T10:20:20.470Z,10.96
2023-02-16T10:21:20.462Z,11.19
2023-02-16T10:22:20.447Z,11.33
2023-02-16T10:23:20.437Z,11.37
2023-02-16T10:24:20.423Z,11.54
2023-02-16T10:25:20.417Z,11.75
2023-02-16T10:26:20.402Z,12.18
2023-02-16T10:27:20.423Z,12.27
2023-02-16T10:28:22.739Z,12.47
2023-02-16T10:29:20.360Z,12.78
2023-02-16T10:30:20.470Z,12.85
2023-02-16T10:31:20.512Z,12.57
2023-02-16T10:32:20.319Z,12.43
2023-02-16T10:33:20.308Z,12.37
2023-02-16T10:34:22.927Z,12.36
2023-02-16T10:35:20.289Z,12.49
2023-02-16T10:36:20.274Z,12.67
2023-02-16T10:37:20.269Z,12.22
2023-02-16T10:38:20.242Z,11.66
2023-02-16T10:39:20.259Z,11.30
2023-02-16T10:40:23.122Z,11.08
2023-02-16T10:41:20.203Z,10.89
2023-02-16T10:42:20.194Z,10.97
2023-02-16T10:43:20.208Z,11.11
2023-02-16T10:44:20.175Z,11.15
2023-02-16T10:45:20.154Z,11.07
2023-02-16T10:46:20.185Z,11.00
2023-02-16T10:47:20.144Z,11.12
2023-02-16T10:48:20.124Z,11.37
2023-02-16T10:49:20.102Z,11.75
2023-02-16T10:50:20.097Z,12.12
2023-02-16T10:51:20.080Z,12.39
2023-02-16T10:52:20.093Z,12.27
2023-02-16T10:53:20.063Z,11.88
2023-02-16T10:54:20.040Z,11.65
2023-02-16T10:55:20.036Z,11.55
2023-02-16T10:56:20.014Z,11.55
2023-02-16T10:57:20.002Z,11.47
2023-02-16T10:58:22.365Z,11.18
2023-02-16T10:59:20.013Z,11.05
2023-02-16T11:00:19.980Z,11.17
2023-02-16T11:01:19.965Z,11.37
2023-02-16T11:02:19.982Z,11.41
2023-02-16T11:03:19.926Z,11.48
2023-02-16T11:04:22.791Z,11.52
2023-02-16T11:05:19.907Z,11.37
2023-02-16T11:06:19.886Z,11.32
2023-02-16T11:07:19.882Z,11.35
2023-02-16T11:08:19.862Z,11.27
2023-02-16T11:09:19.846Z,11.32
2023-02-16T11:10:19.861Z,11.33
2023-02-16T11:11:19.833Z,11.30
2023-02-16T11:12:19.819Z,11.29
2023-02-16T11:13:19.798Z,11.35
2023-02-16T11:14:19.800Z,11.41
2023-02-16T11:15:19.824Z,11.30
2023-02-16T11:16:19.791Z,11.29
2023-02-16T11:17:19.758Z,11.25
2023-02-16T11:18:19.742Z,11.05
2023-02-16T11:19:19.729Z,11.04
2023-02-16T11:20:19.712Z,11.02
2023-02-16T11:21:19.711Z,10.99
2023-02-16T11:22:19.705Z,11.08
2023-02-16T11:23:19.674Z,11.12
2023-02-16T11:24:19.669Z,11.18
2023-02-16T11:25:19.661Z,11.02
2023-02-16T11:26:19.641Z,10.96
2023-02-16T11:27:19.644Z,10.97
2023-02-16T11:28:19.626Z,10.97
2023-02-16T11:29:19.612Z,10.99
2023-02-16T11:30:19.608Z,11.05
2023-02-16T11:31:19.800Z,11.14
2023-02-16T11:32:19.559Z,11.14
2023-02-16T11:33:19.566Z,11.08
2023-02-16T11:34:19.539Z,10.96
2023-02-16T11:35:19.532Z,10.92
2023-02-16T11:36:19.517Z,10.96
2023-02-16T11:37:19.502Z,10.97
2023-02-16T11:38:19.488Z,10.89
2023-02-16T11:39:19.476Z,10.79
2023-02-16T11:40:19.469Z,10.87
2023-02-16T11:41:19.447Z,10.87
2023-02-16T11:42:19.427Z,10.90
2023-02-16T11:43:19.418Z,10.99
2023-02-16T11:44:19.419Z,11.04
2023-02-16T11:45:19.391Z,11.02
2023-02-16T11:46:19.452Z,11.04
2023-02-16T11:47:19.380Z,11.00
2023-02-16T11:48:19.352Z,10.94
2023-02-16T11:49:19.346Z,11.05
2023-02-16T11:50:19.347Z,11.04
2023-02-16T11:51:19.310Z,10.97
2023-02-16T11:52:19.297Z,10.92
2023-02-16T11:53:19.282Z,10.93
2023-02-16T11:54:19.263Z,10.87
2023-02-16T11:55:19.248Z,10.90
2023-02-16T11:56:19.245Z,11.07
2023-02-16T11:57:19.233Z,11.04
2023-02-16T11:58:19.235Z,11.10
2023-02-16T11:59:19.216Z,11.14
2023-02-16T12:00:19.184Z,11.22
2023-02-16T12:01:19.174Z,11.19
2023-02-16T12:02:19.159Z,11.19
2023-02-16T12:03:19.169Z,11.29
2023-02-16T12:04:19.149Z,11.33
2023-02-16T12:05:19.202Z,11.35
2023-02-16T12:06:19.116Z,11.35
2023-02-16T12:07:19.111Z,11.41
2023-02-16T12:08:19.104Z,11.44
2023-02-16T12:09:19.078Z,11.45
2023-02-16T12:10:19.062Z,11.50
2023-02-16T12:11:19.051Z,11.44
2023-02-16T12:12:19.038Z,11.35
2023-02-16T12:13:19.052Z,11.29
2023-02-16T12:14:19.004Z,11.25
2023-02-16T12:15:19.001Z,11.30
2023-02-16T12:16:19.051Z,11.29
2023-02-16T12:17:18.990Z,11.29
2023-02-16T12:18:18.961Z,11.40
2023-02-16T12:19:18.970Z,11.50
2023-02-16T12:20:18.925Z,11.51
2023-02-16T12:21:18.915Z,11.57
2023-02-16T12:22:18.900Z,11.59
2023-02-16T12:23:18.900Z,11.57
2023-02-16T12:24:18.876Z,11.72
2023-02-16T12:25:18.865Z,11.69
2023-02-16T12:26:18.859Z,11.66
2023-02-16T12:27:18.844Z,11.54
2023-02-16T12:28:18.833Z,11.52
2023-02-16T12:29:18.817Z,11.52
2023-02-16T12:30:18.884Z,11.54
2023-02-16T12:31:18.889Z,11.62
2023-02-16T12:32:18.799Z,11.69
2023-02-16T12:33:18.758Z,11.55
2023-02-16T12:34:18.780Z,11.54
2023-02-16T12:35:18.758Z,11.62
2023-02-16T12:36:18.728Z,11.69
2023-02-16T12:37:18.719Z,11.66
2023-02-16T12:38:18.705Z,11.63
2023-02-16T12:39:18.685Z,11.63
2023-02-16T12:40:18.682Z,11.62
2023-02-16T12:41:18.668Z,11.57
2023-02-16T12:42:18.654Z,11.54
2023-02-16T12:43:18.633Z,11.63
2023-02-16T12:44:18.628Z,11.73
2023-02-16T12:45:18.621Z,11.72
2023-02-16T12:46:18.587Z,11.72
2023-02-16T12:47:18.586Z,11.77
2023-02-16T12:48:18.576Z,11.69
2023-02-16T12:49:18.583Z,11.72
2023-02-16T12:50:18.540Z,11.65
2023-02-16T12:51:18.566Z,11.68
2023-02-16T12:52:18.543Z,11.75
2023-02-16T12:53:18.499Z,11.81
2023-02-16T12:54:18.485Z,11.84
2023-02-16T12:55:18.489Z,11.90